Miguel Calmon, Brazil
Current Conditions -  °F | °C
As of 9:00 AM on Friday 21 Nov 2014 (Local Time) from SBPL Reporting Station
Broken Clouds Broken Clouds  
Wind Chill: 82°   Ceiling: 3000
Heat Index: 86°   Visibility: 6mi
Dew Point: 70°   Wind: 8mph
Humidity: 66%   Direction: 110°ESE
Pressure: 30"   Gusts: NA
Location:  11.43°S, 40.59°W
Report Text: SBPL 211200Z 11007KT 9999 BKN030 28/21 Q1016
Loading
Personal Weather Stations






























Interactive Weather Map New forecast layout! Learn more

10-Day Weather Forecast

Advertisements
Track Severe Weather on mobile